Homestead, FL

8:09 AM EDT on August 26, 2016 (GMT -0400)
Dade County-Homestead Regional | | Change Station

Elev 7 ft 25.49 °N, 80.38 °W | Updated 11 minutes ago

Clear
Clear
79 °F
Feels Like 79 °F
N
5
Wind Variable Wind from North

Today
High -- | Low -- °F
--% Chance of Precip.
Yesterday
High -- | Low -- °F
Precip. -- in
Pressure 29.96 in
Visibility 10.0 miles
Clouds Clear
Dew Point 76 °F
Humidity 91%
Rainfall 0.07 in
Snow Depth Not available.
6:59 AM 7:46 PM
Waning Crescent, 35% visible
METAR KHST 261158Z AUTO 01004KT 10SM CLR 26/25 A2995 RMK AO2 SLP145 60007 70007 T02610246 10279 20256 53003
Pressure 29.96 in
Visibility 10.0 miles
Clouds Clear
Dew Point 76 °F
Humidity 91%
Rainfall 0.07 in
Snow Depth Not available.
6:59 AM 7:46 PM
Waning Crescent, 35% visible
METAR KHST 261158Z AUTO 01004KT 10SM CLR 26/25 A2995 RMK AO2 SLP145 60007 70007 T02610246 10279 20256 53003

10-Day Weather Forecast

Almanac

Astronomy

Aug. 26, 2016 Rise Set
Actual Time
Civil Twilight
Nautical Twilight
Astronomical Twilight
Moon
Length of Visible Light
Length of Day
Tomorrow will be .
, % of the Moon is Illuminated

Today's Extremes

State Highs State Lows

Community

WunderPhotos

Upload Photos

1,935,077 photos uploaded!

WunderBlog® & News

Nearby

Air Quality

  Air Quality AQ Index Pollutant
Not available.

Snow Depth

Station Depth Elevation

Earthquake Activity

City Distance Mag. Time & Date
Minimum magnitude displayed is 2.5.

Coastal Water Temperatures

Place Temperature

Stations

Nearby Weather Stations

Station Location Temp. Windchill Dew Point Humidity Wind Precip. Elev Updated Type
                   

Watches & Warnings

There are currently no watches in effect.